Barre Mills, Wisconsin
Current Conditions -  °F | °C
As of 12:33 AM on Saturday 25 Oct 2014 (Local Time) from KLSE Reporting Station
Haze Haze  
Wind Chill: 56°   Ceiling: Unl
Heat Index: 56°   Visibility: 5mi
Dew Point: 54°   Wind: 6mph
Humidity: 93%   Direction: 190°S
Pressure: 29.89"   Gusts: NA
Location:  43.8°N, 91.145°W
Report Text: KLSE 250533Z AUTO 19005KT 5SM BR SCT009 13/12 A2989 RMK AO2 T01330122
Loading
Personal Weather Stations






























Interactive Weather Map
Tropical Storm Tracking
New forecast layout! Learn more

10-Day Weather Forecast

Advertisements
Track Severe Weather on mobile